createdAt,value
2023-04-06T00:00:38.863Z,0.64
2023-04-06T00:03:06.974Z,0.90
2023-04-06T00:05:34.255Z,0.51
2023-04-06T00:08:01.466Z,0.39
2023-04-06T00:10:29.089Z,0.83
2023-04-06T00:12:57.640Z,0.75
2023-04-06T00:15:24.840Z,0.45
2023-04-06T00:17:52.424Z,0.43
2023-04-06T00:20:19.645Z,0.54
2023-04-06T00:22:46.880Z,0.31
2023-04-06T00:25:16.310Z,0.23
2023-04-06T00:27:43.568Z,0.23
2023-04-06T00:30:10.960Z,0.15
2023-04-06T00:32:38.552Z,0.14
2023-04-06T00:35:06.475Z,0.01
2023-04-06T00:37:33.769Z,-0.18
2023-04-06T00:40:01.285Z,0.30
2023-04-06T00:42:28.586Z,0.54
2023-04-06T00:44:56.380Z,0.53
2023-04-06T00:47:24.392Z,0.00
2023-04-06T00:49:51.595Z,-0.10
2023-04-06T00:52:19.068Z,-0.15
2023-04-06T00:54:46.916Z,0.29
2023-04-06T00:57:14.568Z,-0.03
2023-04-06T00:59:43.084Z,-0.13
2023-04-06T01:02:11.394Z,0.11
2023-04-06T01:04:39.305Z,0.08
2023-04-06T01:07:07.729Z,0.64
2023-04-06T01:09:36.642Z,0.47
2023-04-06T01:12:04.860Z,-0.01
2023-04-06T01:14:32.474Z,0.23
2023-04-06T01:17:01.497Z,0.07
2023-04-06T01:19:29.012Z,-0.08
2023-04-06T01:21:56.573Z,0.00
2023-04-06T01:24:25.395Z,-0.13
2023-04-06T01:26:53.306Z,-0.18
2023-04-06T01:29:20.742Z,-0.28
2023-04-06T01:31:49.539Z,-0.49
2023-04-06T01:34:17.223Z,-0.36
2023-04-06T01:36:44.547Z,-0.13
2023-04-06T01:39:15.869Z,0.25
2023-04-06T01:41:43.165Z,0.03
2023-04-06T01:44:10.460Z,-0.02
2023-04-06T01:46:37.912Z,0.04
2023-04-06T01:49:07.013Z,0.05
2023-04-06T01:51:34.460Z,-0.05
2023-04-06T01:54:02.241Z,-0.39
2023-04-06T01:56:31.153Z,-0.36
2023-04-06T01:58:59.267Z,-0.36
2023-04-06T02:01:27.543Z,-0.34
2023-04-06T02:03:55.409Z,-0.35
2023-04-06T02:06:22.654Z,-0.35
2023-04-06T02:08:50.077Z,-0.29
2023-04-06T02:11:17.610Z,-0.35
2023-04-06T02:13:45.391Z,-0.33
2023-04-06T02:16:12.911Z,-0.62
2023-04-06T02:18:40.739Z,-0.54
2023-04-06T02:21:08.085Z,-0.26
2023-04-06T02:23:35.348Z,-0.22
2023-04-06T02:26:02.816Z,-0.43
2023-04-06T02:28:30.008Z,-0.43
2023-04-06T02:30:57.496Z,0.61
2023-04-06T02:33:25.535Z,0.05
2023-04-06T02:35:52.991Z,-0.69
2023-04-06T02:38:20.511Z,-0.51
2023-04-06T02:40:47.738Z,-0.62
2023-04-06T02:43:16.460Z,-0.52
2023-04-06T02:45:44.624Z,-0.40
2023-04-06T02:48:12.185Z,-0.25
2023-04-06T02:50:39.406Z,-0.20
2023-04-06T02:53:07.401Z,-0.42
2023-04-06T02:55:35.567Z,-0.58
2023-04-06T02:58:02.831Z,-0.76
2023-04-06T03:00:31.163Z,-1.01
2023-04-06T03:02:58.561Z,-1.06
2023-04-06T03:05:26.134Z,-1.02
2023-04-06T03:07:53.741Z,-1.14
2023-04-06T03:10:21.638Z,-1.22
2023-04-06T03:12:49.156Z,-1.05
2023-04-06T03:15:16.728Z,-0.89
2023-04-06T03:17:44.705Z,-0.81
2023-04-06T03:20:12.998Z,-1.07
2023-04-06T03:22:40.441Z,-1.13
2023-04-06T03:25:07.910Z,-1.11
2023-04-06T03:27:35.487Z,-0.41
2023-04-06T03:30:04.082Z,-1.23
2023-04-06T03:32:31.777Z,-1.32
2023-04-06T03:34:59.297Z,-1.33
2023-04-06T03:37:26.769Z,-1.25
2023-04-06T03:39:55.047Z,-0.94
2023-04-06T03:42:22.476Z,-1.27
2023-04-06T03:44:49.983Z,-1.22
2023-04-06T03:47:17.723Z,-1.08
2023-04-06T03:49:44.948Z,-0.93
2023-04-06T03:52:12.653Z,-1.20
2023-04-06T03:54:39.882Z,-1.20
2023-04-06T03:57:07.226Z,-1.14
2023-04-06T03:59:34.792Z,-1.12
2023-04-06T04:02:02.190Z,-1.09
2023-04-06T04:04:30.420Z,-1.03
2023-04-06T04:06:58.816Z,-1.27
2023-04-06T04:09:28.496Z,-1.29
2023-04-06T04:11:57.373Z,-1.56
2023-04-06T04:14:24.608Z,-1.01
2023-04-06T04:16:51.834Z,-1.43
2023-04-06T04:19:19.357Z,-0.64
2023-04-06T04:21:47.144Z,-1.37
2023-04-06T04:24:14.706Z,-1.21
2023-04-06T04:26:42.255Z,-1.36
2023-04-06T04:29:09.779Z,-0.01
2023-04-06T04:31:37.386Z,0.47
2023-04-06T04:34:05.129Z,0.70
2023-04-06T04:36:32.562Z,0.24
2023-04-06T04:39:02.172Z,-1.02
2023-04-06T04:41:30.543Z,-1.03
2023-04-06T04:43:59.122Z,0.29
2023-04-06T04:46:26.507Z,0.52
2023-04-06T04:48:54.526Z,-1.01
2023-04-06T04:51:21.931Z,-1.46
2023-04-06T04:53:50.247Z,-1.70
2023-04-06T04:56:17.978Z,-1.29
2023-04-06T04:58:45.868Z,-1.67
2023-04-06T05:01:13.370Z,-1.46
2023-04-06T05:03:41.239Z,-1.42
2023-04-06T05:06:10.450Z,-1.40
2023-04-06T05:08:40.625Z,-1.48
2023-04-06T05:11:08.300Z,-0.73
2023-04-06T05:13:35.978Z,-0.81
2023-04-06T05:16:06.742Z,-0.64
2023-04-06T05:18:35.548Z,-0.17
2023-04-06T05:21:03.148Z,-0.83
2023-04-06T05:23:31.339Z,-0.77
2023-04-06T05:26:02.289Z,-0.73
2023-04-06T05:28:29.563Z,-0.65
2023-04-06T05:30:57.924Z,-0.78
2023-04-06T05:33:27.287Z,-0.45
2023-04-06T05:35:55.883Z,-0.69
2023-04-06T05:38:23.429Z,-0.52
2023-04-06T05:40:51.318Z,-0.21
2023-04-06T05:43:21.064Z,-0.20
2023-04-06T05:45:52.621Z,0.14
2023-04-06T05:48:20.641Z,-0.20
2023-04-06T05:50:57.223Z,-0.18
2023-04-06T05:53:27.471Z,-0.53
2023-04-06T05:55:55.126Z,-0.24
2023-04-06T05:58:22.393Z,0.19
2023-04-06T06:00:50.677Z,1.35
2023-04-06T06:03:18.611Z,0.69
2023-04-06T06:05:47.200Z,1.67
2023-04-06T06:08:15.543Z,0.69
2023-04-06T06:10:43.096Z,0.91
2023-04-06T06:13:11.272Z,1.65
2023-04-06T06:15:38.760Z,2.07
2023-04-06T06:18:06.662Z,1.17
2023-04-06T06:20:33.990Z,0.55
2023-04-06T06:23:01.501Z,0.55
2023-04-06T06:25:31.764Z,0.52
2023-04-06T06:27:59.356Z,1.05
2023-04-06T06:30:27.307Z,1.06
2023-04-06T06:32:54.807Z,1.10
2023-04-06T06:35:23.708Z,1.10
2023-04-06T06:37:51.325Z,2.09
2023-04-06T06:40:21.048Z,1.95
2023-04-06T06:42:48.390Z,1.69
2023-04-06T06:45:16.720Z,2.07
2023-04-06T06:47:44.289Z,2.14
2023-04-06T06:50:12.253Z,2.39
2023-04-06T06:52:39.510Z,1.70
2023-04-06T06:55:07.288Z,2.81
2023-04-06T06:57:35.866Z,2.74
2023-04-06T07:00:03.719Z,2.97
2023-04-06T07:02:31.252Z,2.55
2023-04-06T07:04:58.713Z,2.22
2023-04-06T07:07:26.562Z,2.04
2023-04-06T07:09:54.196Z,1.73
2023-04-06T07:12:21.620Z,2.24
2023-04-06T07:14:48.994Z,2.25
2023-04-06T07:17:16.936Z,3.16
2023-04-06T07:19:47.276Z,3.18
2023-04-06T07:22:14.610Z,3.26
2023-04-06T07:24:42.275Z,3.58
2023-04-06T07:27:09.481Z,2.87
2023-04-06T07:29:36.739Z,3.29
2023-04-06T07:32:04.868Z,3.02
2023-04-06T07:34:32.723Z,3.06
2023-04-06T07:37:03.861Z,3.77
2023-04-06T07:39:31.743Z,3.87
2023-04-06T07:41:59.093Z,3.82
2023-04-06T07:44:26.515Z,3.84
2023-04-06T07:46:54.155Z,3.89
2023-04-06T07:49:22.032Z,4.09
2023-04-06T07:51:49.492Z,4.22
2023-04-06T07:54:17.100Z,4.11
2023-04-06T07:56:44.284Z,3.89
2023-04-06T07:59:12.479Z,4.19
2023-04-06T08:01:40.042Z,4.28
2023-04-06T08:04:07.970Z,4.45
2023-04-06T08:06:37.358Z,4.60
2023-04-06T08:09:04.796Z,4.91
2023-04-06T08:11:32.277Z,4.77
2023-04-06T08:13:59.572Z,4.81
2023-04-06T08:16:26.784Z,5.37
2023-04-06T08:18:54.826Z,5.41
2023-04-06T08:21:22.025Z,5.42
2023-04-06T08:23:49.216Z,5.43
2023-04-06T08:26:16.662Z,5.83
2023-04-06T08:28:46.355Z,5.67
2023-04-06T08:31:14.285Z,5.35
2023-04-06T08:33:41.795Z,5.54
2023-04-06T08:36:09.894Z,5.38
2023-04-06T08:38:37.193Z,5.56
2023-04-06T08:41:11.133Z,5.80
2023-04-06T08:43:45.602Z,5.92
2023-04-06T08:46:13.280Z,5.74
2023-04-06T08:48:41.202Z,5.65
2023-04-06T08:51:08.988Z,5.67
2023-04-06T08:53:36.921Z,5.95
2023-04-06T08:56:04.537Z,6.39
2023-04-06T08:58:38.602Z,6.33
2023-04-06T09:01:08.476Z,6.23
2023-04-06T09:03:38.493Z,6.22
2023-04-06T09:06:05.842Z,6.89
2023-04-06T09:08:37.252Z,6.59
2023-04-06T09:11:04.725Z,6.79
2023-04-06T09:13:32.197Z,6.75
2023-04-06T09:16:00.479Z,7.31
2023-04-06T09:18:34.536Z,7.09
2023-04-06T09:21:06.062Z,6.22
2023-04-06T09:23:33.261Z,6.83
2023-04-06T09:26:06.488Z,6.96
2023-04-06T09:28:43.313Z,6.70
2023-04-06T09:31:11.184Z,6.76
2023-04-06T09:33:39.774Z,6.77
2023-04-06T09:36:07.389Z,6.94
2023-04-06T09:38:34.678Z,6.80
2023-04-06T09:41:03.152Z,7.07
2023-04-06T09:43:30.893Z,6.80
2023-04-06T09:45:59.769Z,7.13
2023-04-06T09:48:29.292Z,7.03
2023-04-06T09:50:59.142Z,6.62
2023-04-06T09:53:26.562Z,6.94
2023-04-06T09:55:53.719Z,7.11
2023-04-06T09:58:27.143Z,7.24
2023-04-06T10:00:54.867Z,6.86
2023-04-06T10:03:27.720Z,7.45
2023-04-06T10:05:59.761Z,7.78
2023-04-06T10:08:31.800Z,7.90
2023-04-06T10:11:00.278Z,8.05
2023-04-06T10:13:27.816Z,7.33
2023-04-06T10:15:55.399Z,7.38
2023-04-06T10:18:22.691Z,7.20
2023-04-06T10:20:50.146Z,7.94
2023-04-06T10:23:21.758Z,8.24
2023-04-06T10:25:55.902Z,8.35
2023-04-06T10:28:24.016Z,8.45
2023-04-06T10:30:57.364Z,8.56
2023-04-06T10:33:24.853Z,8.63
2023-04-06T10:35:52.139Z,8.65
2023-04-06T10:38:23.053Z,8.61
2023-04-06T10:40:53.071Z,8.88
2023-04-06T10:43:21.249Z,8.78
2023-04-06T10:45:58.620Z,9.10
2023-04-06T10:48:27.101Z,9.02
2023-04-06T10:50:54.828Z,9.52
2023-04-06T10:53:25.796Z,9.44
2023-04-06T10:55:54.002Z,8.52
2023-04-06T10:58:21.143Z,8.39
2023-04-06T11:00:51.142Z,8.87
2023-04-06T11:03:19.259Z,8.96
2023-04-06T11:05:48.170Z,9.24
2023-04-06T11:08:31.890Z,9.50
2023-04-06T11:11:10.443Z,9.60
2023-04-06T11:13:44.797Z,9.32
2023-04-06T11:16:19.252Z,8.80
2023-04-06T11:18:52.739Z,9.03
2023-04-06T11:21:21.085Z,9.18
2023-04-06T11:23:48.258Z,9.09
2023-04-06T11:26:15.873Z,8.68
2023-04-06T11:28:45.228Z,8.64
2023-04-06T11:31:12.628Z,8.60
2023-04-06T11:33:39.952Z,8.99
2023-04-06T11:36:07.628Z,8.85
2023-04-06T11:38:35.070Z,8.67
2023-04-06T11:41:02.905Z,8.90
2023-04-06T11:43:30.896Z,8.84
2023-04-06T11:46:03.210Z,9.06
2023-04-06T11:48:31.264Z,8.93
2023-04-06T11:50:59.706Z,8.65
2023-04-06T11:53:27.076Z,8.57
2023-04-06T11:55:54.609Z,8.88
2023-04-06T11:58:21.886Z,9.21
2023-04-06T12:00:49.117Z,8.96
2023-04-06T12:03:16.846Z,8.85
2023-04-06T12:05:44.549Z,8.62
2023-04-06T12:08:11.853Z,8.56
2023-04-06T12:10:39.385Z,8.76
2023-04-06T12:13:06.688Z,8.76
2023-04-06T12:15:33.892Z,8.65
2023-04-06T12:18:01.659Z,8.58
2023-04-06T12:20:29.266Z,8.76
2023-04-06T12:22:56.462Z,8.53
2023-04-06T12:25:23.918Z,8.79
2023-04-06T12:27:51.356Z,8.44
2023-04-06T12:30:18.621Z,8.51
2023-04-06T12:32:46.882Z,8.73
2023-04-06T12:35:16.877Z,8.77
2023-04-06T12:37:44.122Z,9.00
2023-04-06T12:40:13.326Z,9.00
2023-04-06T12:42:41.870Z,9.07
2023-04-06T12:45:09.744Z,9.22
2023-04-06T12:47:37.502Z,9.25
2023-04-06T12:50:08.021Z,8.97
2023-04-06T12:52:36.558Z,9.01
2023-04-06T12:55:04.451Z,9.49
2023-04-06T12:57:32.083Z,9.25
2023-04-06T12:59:59.727Z,9.59
2023-04-06T13:02:28.183Z,9.94
2023-04-06T13:04:55.631Z,9.81
2023-04-06T13:07:22.989Z,9.71
2023-04-06T13:09:50.708Z,9.09
2023-04-06T13:12:17.951Z,9.17
2023-04-06T13:14:45.404Z,9.31
2023-04-06T13:17:12.838Z,9.01
2023-04-06T13:19:40.515Z,9.47
2023-04-06T13:22:07.808Z,8.96
2023-04-06T13:24:36.783Z,9.05
2023-04-06T13:27:04.022Z,8.94
2023-04-06T13:29:31.219Z,8.89
2023-04-06T13:31:58.794Z,8.42
2023-04-06T13:34:25.997Z,8.38
2023-04-06T13:36:53.201Z,8.54
2023-04-06T13:39:21.010Z,8.39
2023-04-06T13:41:48.171Z,8.65
2023-04-06T13:44:15.358Z,8.76
2023-04-06T13:46:44.367Z,8.74
2023-04-06T13:49:11.915Z,8.47
2023-04-06T13:51:40.038Z,9.00
2023-04-06T13:54:07.604Z,8.64
2023-04-06T13:56:35.605Z,9.09
2023-04-06T13:59:03.848Z,8.93
2023-04-06T14:01:31.526Z,8.75
2023-04-06T14:04:01.610Z,8.74
2023-04-06T14:06:31.551Z,8.61
2023-04-06T14:08:59.650Z,8.84
2023-04-06T14:11:27.394Z,8.82
2023-04-06T14:13:57.302Z,8.38
2023-04-06T14:16:26.013Z,8.42
2023-04-06T14:18:53.356Z,7.95
2023-04-06T14:21:21.125Z,7.76
2023-04-06T14:23:48.665Z,7.54
2023-04-06T14:26:16.332Z,7.80
2023-04-06T14:28:43.726Z,7.95
2023-04-06T14:31:14.381Z,7.93
2023-04-06T14:33:43.274Z,8.31
2023-04-06T14:36:11.888Z,8.31
2023-04-06T14:38:40.452Z,8.10
2023-04-06T14:41:09.053Z,8.04
2023-04-06T14:43:36.560Z,8.23
2023-04-06T14:46:03.840Z,8.26
2023-04-06T14:48:31.302Z,8.24
2023-04-06T14:50:58.913Z,8.16
2023-04-06T14:53:26.179Z,8.05
2023-04-06T14:55:53.556Z,7.76
2023-04-06T14:58:21.488Z,7.84
2023-04-06T15:00:48.930Z,7.68
2023-04-06T15:03:16.683Z,7.75
2023-04-06T15:05:44.278Z,7.97
2023-04-06T15:08:12.591Z,8.08
2023-04-06T15:10:40.290Z,7.82
2023-04-06T15:13:07.773Z,7.55
2023-04-06T15:15:34.948Z,7.49
2023-04-06T15:18:03.539Z,7.68
2023-04-06T15:20:31.558Z,7.39
2023-04-06T15:22:58.807Z,7.78
2023-04-06T15:25:26.305Z,8.00
2023-04-06T15:27:54.791Z,8.06
2023-04-06T15:30:22.051Z,8.29
2023-04-06T15:33:04.806Z,8.12
2023-04-06T15:35:32.545Z,7.78
2023-04-06T15:37:59.748Z,7.91
2023-04-06T15:40:27.334Z,7.97
2023-04-06T15:42:54.784Z,8.17
2023-04-06T15:45:22.181Z,7.87
2023-04-06T15:47:50.574Z,7.92
2023-04-06T15:50:19.734Z,7.76
2023-04-06T15:52:47.051Z,8.01
2023-04-06T15:55:14.200Z,8.00
2023-04-06T15:57:41.677Z,7.45
2023-04-06T16:00:10.369Z,7.38
2023-04-06T16:02:38.180Z,6.91
2023-04-06T16:05:05.787Z,7.37
2023-04-06T16:07:34.317Z,7.03
2023-04-06T16:10:02.366Z,6.99
2023-04-06T16:12:30.824Z,6.92
2023-04-06T16:14:58.017Z,6.84
2023-04-06T16:17:25.659Z,7.01
2023-04-06T16:19:52.979Z,6.89
2023-04-06T16:22:20.926Z,6.96
2023-04-06T16:24:48.345Z,6.81
2023-04-06T16:27:15.842Z,6.42
2023-04-06T16:29:43.076Z,6.19
2023-04-06T16:32:12.319Z,5.76
2023-04-06T16:34:39.571Z,5.71
2023-04-06T16:37:06.867Z,5.40
2023-04-06T16:39:34.516Z,5.37
2023-04-06T16:42:02.819Z,5.56
2023-04-06T16:44:30.478Z,5.57
2023-04-06T16:46:58.013Z,5.82
2023-04-06T16:49:25.769Z,5.40
2023-04-06T16:51:52.946Z,5.24
2023-04-06T16:54:20.436Z,5.52
2023-04-06T16:56:55.054Z,4.80
2023-04-06T16:59:22.443Z,4.70
2023-04-06T17:01:49.739Z,4.42
2023-04-06T17:04:18.419Z,4.30
2023-04-06T17:06:45.982Z,4.37
2023-04-06T17:09:13.270Z,4.47
2023-04-06T17:11:46.650Z,4.24
2023-04-06T17:14:14.366Z,4.21
2023-04-06T17:16:41.707Z,4.53
2023-04-06T17:19:09.959Z,4.36
2023-04-06T17:21:38.777Z,4.32
2023-04-06T17:24:06.122Z,4.08
2023-04-06T17:26:33.313Z,4.02
2023-04-06T17:29:01.062Z,4.09
2023-04-06T17:31:28.250Z,4.00
2023-04-06T17:33:55.444Z,4.19
2023-04-06T17:36:22.954Z,3.96
2023-04-06T17:38:50.628Z,3.96
2023-04-06T17:41:17.928Z,4.06
2023-04-06T17:43:45.645Z,4.00
2023-04-06T17:46:13.112Z,4.01
2023-04-06T17:48:40.632Z,3.92
2023-04-06T17:51:08.325Z,3.66
2023-04-06T17:53:36.849Z,3.77
2023-04-06T17:56:04.683Z,3.68
2023-04-06T17:58:32.239Z,3.84
2023-04-06T18:00:59.482Z,3.77
2023-04-06T18:03:27.428Z,3.67
2023-04-06T18:05:54.970Z,4.22
2023-04-06T18:08:22.530Z,4.34
2023-04-06T18:10:50.311Z,4.41
2023-04-06T18:13:17.453Z,4.37
2023-04-06T18:15:44.875Z,4.17
2023-04-06T18:18:12.363Z,3.56
2023-04-06T18:20:40.316Z,4.25
2023-04-06T18:23:07.553Z,4.38
2023-04-06T18:25:38.550Z,3.84
2023-04-06T18:28:06.296Z,3.82
2023-04-06T18:30:33.636Z,3.66
2023-04-06T18:33:01.125Z,3.86
2023-04-06T18:35:28.404Z,3.83
2023-04-06T18:37:55.731Z,3.91
2023-04-06T18:40:33.058Z,3.63
2023-04-06T18:43:00.555Z,3.51
2023-04-06T18:45:28.059Z,4.00
2023-04-06T18:47:56.310Z,4.00
2023-04-06T18:50:23.833Z,4.13
2023-04-06T18:52:52.249Z,4.03
2023-04-06T18:55:19.982Z,3.83
2023-04-06T18:57:47.487Z,4.13
2023-04-06T19:00:15.728Z,3.87
2023-04-06T19:02:43.717Z,4.37
2023-04-06T19:05:12.106Z,4.42
2023-04-06T19:07:39.956Z,4.52
2023-04-06T19:10:07.630Z,4.74
2023-04-06T19:12:35.934Z,4.93
2023-04-06T19:15:05.280Z,4.61
2023-04-06T19:17:32.402Z,4.92
2023-04-06T19:19:59.866Z,5.05
2023-04-06T19:22:27.572Z,5.36
2023-04-06T19:24:54.769Z,5.69
2023-04-06T19:27:22.077Z,5.58
2023-04-06T19:29:50.402Z,5.65
2023-04-06T19:32:17.912Z,5.52
2023-04-06T19:34:45.207Z,4.96
2023-04-06T19:37:12.687Z,4.64
2023-04-06T19:39:40.170Z,4.65
2023-04-06T19:42:07.357Z,4.19
2023-04-06T19:44:36.025Z,4.05
2023-04-06T19:47:03.171Z,3.68
2023-04-06T19:49:30.362Z,4.19
2023-04-06T19:51:57.955Z,4.04
2023-04-06T19:54:26.166Z,3.81
2023-04-06T19:56:54.161Z,3.84
2023-04-06T19:59:21.940Z,3.80
2023-04-06T20:01:49.217Z,3.96
2023-04-06T20:04:16.973Z,3.80
2023-04-06T20:06:44.383Z,4.03
2023-04-06T20:09:12.117Z,4.12
2023-04-06T20:11:39.574Z,3.80
2023-04-06T20:14:07.464Z,3.79
2023-04-06T20:16:34.772Z,3.71
2023-04-06T20:19:02.349Z,4.07
2023-04-06T20:21:29.520Z,3.95
2023-04-06T20:23:56.762Z,3.79
2023-04-06T20:26:24.174Z,3.80
2023-04-06T20:28:51.352Z,3.78
2023-04-06T20:31:18.475Z,3.75
2023-04-06T20:33:46.010Z,3.70
2023-04-06T20:36:13.164Z,3.71
2023-04-06T20:38:40.646Z,3.63
2023-04-06T20:41:08.110Z,3.66
2023-04-06T20:43:35.634Z,3.87
2023-04-06T20:46:03.187Z,4.16
2023-04-06T20:48:34.303Z,4.13
2023-04-06T20:51:03.380Z,4.14
2023-04-06T20:53:31.798Z,3.84
2023-04-06T20:56:01.065Z,4.00
2023-04-06T20:58:28.288Z,3.87
2023-04-06T21:00:55.961Z,3.92
2023-04-06T21:03:23.944Z,3.96
2023-04-06T21:05:52.094Z,3.86
2023-04-06T21:08:19.517Z,3.30
2023-04-06T21:10:46.703Z,3.66
2023-04-06T21:13:13.837Z,2.82
2023-04-06T21:15:41.468Z,3.49
2023-04-06T21:18:09.010Z,3.50
2023-04-06T21:20:37.055Z,3.24
2023-04-06T21:23:04.465Z,3.52
2023-04-06T21:25:31.690Z,3.58
2023-04-06T21:27:58.873Z,3.60
2023-04-06T21:30:26.281Z,4.10
2023-04-06T21:32:53.470Z,4.05
2023-04-06T21:35:20.742Z,3.69
2023-04-06T21:37:48.172Z,3.84
2023-04-06T21:40:15.346Z,3.98
2023-04-06T21:42:42.524Z,3.38
2023-04-06T21:45:10.113Z,3.49
2023-04-06T21:47:37.298Z,4.22
2023-04-06T21:50:04.629Z,4.33
2023-04-06T21:52:32.053Z,4.18
2023-04-06T21:54:59.290Z,4.05
2023-04-06T21:57:26.452Z,4.02
2023-04-06T21:59:54.039Z,4.22
2023-04-06T22:02:21.802Z,4.37
2023-04-06T22:04:49.566Z,4.02
2023-04-06T22:07:16.904Z,3.38
2023-04-06T22:09:50.796Z,4.31
2023-04-06T22:12:19.471Z,4.13
2023-04-06T22:14:46.679Z,4.25
2023-04-06T22:17:14.258Z,4.63
2023-04-06T22:19:41.800Z,4.75
2023-04-06T22:22:08.967Z,3.83
2023-04-06T22:24:36.192Z,4.10
2023-04-06T22:27:04.069Z,3.90
2023-04-06T22:29:31.241Z,3.94
2023-04-06T22:31:58.422Z,4.44
2023-04-06T22:34:25.978Z,4.27
2023-04-06T22:36:53.168Z,4.53
2023-04-06T22:39:20.490Z,4.57
2023-04-06T22:41:48.068Z,4.49
2023-04-06T22:44:15.648Z,3.97
2023-04-06T22:46:42.961Z,4.52
2023-04-06T22:49:10.580Z,3.71
2023-04-06T22:51:37.820Z,4.24
2023-04-06T22:54:04.986Z,4.42
2023-04-06T22:56:32.466Z,4.06
2023-04-06T22:58:59.752Z,4.26
2023-04-06T23:01:26.973Z,4.27
2023-04-06T23:03:54.813Z,4.03
2023-04-06T23:06:22.128Z,3.50
2023-04-06T23:08:49.336Z,4.44
2023-04-06T23:11:16.806Z,4.04
2023-04-06T23:13:43.985Z,4.03
2023-04-06T23:16:11.505Z,4.10
2023-04-06T23:18:39.106Z,4.24
2023-04-06T23:21:07.756Z,4.49
2023-04-06T23:23:35.083Z,4.43
2023-04-06T23:26:02.522Z,4.46
2023-04-06T23:28:29.723Z,4.40
2023-04-06T23:30:56.971Z,4.29
2023-04-06T23:33:27.064Z,4.68
2023-04-06T23:35:54.201Z,4.43
2023-04-06T23:38:21.357Z,4.32
2023-04-06T23:40:48.758Z,4.64
2023-04-06T23:43:15.927Z,4.73
2023-04-06T23:45:43.172Z,4.49
2023-04-06T23:48:10.898Z,4.94
2023-04-06T23:50:38.089Z,4.70
2023-04-06T23:53:05.645Z,4.56
2023-04-06T23:55:33.219Z,4.87
2023-04-06T23:58:00.518Z,4.30
